sensor_id;sensor_type;location;lat;lon;timestamp;pressure;altitude;pressure_sealevel;temperature;humidity
13593;BME280;6867;50.998;4.250;2023-03-20T00:00:16;101720.56;;;6.94;76.72
13593;BME280;6867;50.998;4.250;2023-03-20T00:02:44;101723.53;;;6.91;76.33
13593;BME280;6867;50.998;4.250;2023-03-20T00:05:16;101713.13;;;6.80;76.63
13593;BME280;6867;50.998;4.250;2023-03-20T00:07:44;101711.06;;;6.66;76.40
13593;BME280;6867;50.998;4.250;2023-03-20T00:10:12;101718.06;;;6.67;76.72
13593;BME280;6867;50.998;4.250;2023-03-20T00:12:39;101708.88;;;6.61;76.75
13593;BME280;6867;50.998;4.250;2023-03-20T00:15:23;101720.28;;;6.71;77.17
13593;BME280;6867;50.998;4.250;2023-03-20T00:17:53;101706.41;;;6.68;76.93
13593;BME280;6867;50.998;4.250;2023-03-20T00:20:20;101730.28;;;6.69;77.14
13593;BME280;6867;50.998;4.250;2023-03-20T00:22:48;101738.59;;;6.66;77.97
13593;BME280;6867;50.998;4.250;2023-03-20T00:25:16;101724.06;;;6.61;77.53
13593;BME280;6867;50.998;4.250;2023-03-20T00:27:43;101738.06;;;6.63;77.57
13593;BME280;6867;50.998;4.250;2023-03-20T00:30:19;101746.31;;;6.69;77.57
13593;BME280;6867;50.998;4.250;2023-03-20T00:32:47;101745.47;;;6.69;77.11
13593;BME280;6867;50.998;4.250;2023-03-20T00:35:24;101774.72;;;6.79;77.42
13593;BME280;6867;50.998;4.250;2023-03-20T00:37:53;101787.00;;;6.97;77.84
13593;BME280;6867;50.998;4.250;2023-03-20T00:40:20;101804.16;;;7.21;78.25
13593;BME280;6867;50.998;4.250;2023-03-20T00:42:50;101802.25;;;7.47;79.04
13593;BME280;6867;50.998;4.250;2023-03-20T00:45:22;101770.38;;;7.62;78.65
13593;BME280;6867;50.998;4.250;2023-03-20T00:47:49;101751.66;;;7.62;78.79
13593;BME280;6867;50.998;4.250;2023-03-20T00:50:19;101745.63;;;7.60;78.10
13593;BME280;6867;50.998;4.250;2023-03-20T00:52:48;101750.63;;;7.55;78.18
13593;BME280;6867;50.998;4.250;2023-03-20T00:55:15;101752.13;;;7.49;77.76
13593;BME280;6867;50.998;4.250;2023-03-20T00:57:44;101745.75;;;7.42;77.83
13593;BME280;6867;50.998;4.250;2023-03-20T01:00:21;101722.34;;;7.28;77.44
13593;BME280;6867;50.998;4.250;2023-03-20T01:02:49;101711.59;;;7.12;77.69
13593;BME280;6867;50.998;4.250;2023-03-20T01:05:17;101714.53;;;6.92;78.51
13593;BME280;6867;50.998;4.250;2023-03-20T01:07:44;101733.56;;;6.97;78.56
13593;BME280;6867;50.998;4.250;2023-03-20T01:10:12;101750.63;;;7.05;78.48
13593;BME280;6867;50.998;4.250;2023-03-20T01:12:40;101750.47;;;7.06;77.81
13593;BME280;6867;50.998;4.250;2023-03-20T01:15:15;101745.13;;;7.06;77.59
13593;BME280;6867;50.998;4.250;2023-03-20T01:17:42;101749.63;;;7.06;77.52
13593;BME280;6867;50.998;4.250;2023-03-20T01:20:13;101746.84;;;7.15;77.75
13593;BME280;6867;50.998;4.250;2023-03-20T01:22:40;101752.03;;;7.17;77.86
13593;BME280;6867;50.998;4.250;2023-03-20T01:25:08;101747.06;;;7.30;77.98
13593;BME280;6867;50.998;4.250;2023-03-20T01:27:37;101761.47;;;7.45;78.49
13593;BME280;6867;50.998;4.250;2023-03-20T01:30:15;101747.16;;;7.63;78.33
13593;BME280;6867;50.998;4.250;2023-03-20T01:32:42;101746.16;;;7.72;78.10
13593;BME280;6867;50.998;4.250;2023-03-20T01:35:11;101738.31;;;7.79;78.12
13593;BME280;6867;50.998;4.250;2023-03-20T01:37:38;101747.00;;;7.81;77.90
13593;BME280;6867;50.998;4.250;2023-03-20T01:40:10;101753.88;;;7.91;78.24
13593;BME280;6867;50.998;4.250;2023-03-20T01:42:39;101752.22;;;7.98;78.07
13593;BME280;6867;50.998;4.250;2023-03-20T01:45:13;101750.00;;;7.94;78.03
13593;BME280;6867;50.998;4.250;2023-03-20T01:47:42;101752.53;;;7.95;78.03
13593;BME280;6867;50.998;4.250;2023-03-20T01:50:18;101760.56;;;7.95;77.96
13593;BME280;6867;50.998;4.250;2023-03-20T01:52:48;101761.72;;;8.01;78.59
13593;BME280;6867;50.998;4.250;2023-03-20T01:55:16;101765.91;;;8.04;78.43
13593;BME280;6867;50.998;4.250;2023-03-20T01:57:44;101767.41;;;8.06;78.26
13593;BME280;6867;50.998;4.250;2023-03-20T02:00:13;101779.44;;;8.10;78.47
13593;BME280;6867;50.998;4.250;2023-03-20T02:02:41;101773.94;;;8.12;78.55
13593;BME280;6867;50.998;4.250;2023-03-20T02:05:10;101773.59;;;8.15;78.13
13593;BME280;6867;50.998;4.250;2023-03-20T02:07:38;101759.88;;;8.02;78.48
13593;BME280;6867;50.998;4.250;2023-03-20T02:10:09;101750.84;;;8.11;78.67
13593;BME280;6867;50.998;4.250;2023-03-20T02:12:37;101756.06;;;8.12;78.42
13593;BME280;6867;50.998;4.250;2023-03-20T02:15:06;101750.00;;;8.02;78.41
13593;BME280;6867;50.998;4.250;2023-03-20T02:17:33;101748.66;;;7.98;79.00
13593;BME280;6867;50.998;4.250;2023-03-20T02:20:07;101762.56;;;8.02;78.73
13593;BME280;6867;50.998;4.250;2023-03-20T02:26:00;101755.72;;;7.99;78.53
13593;BME280;6867;50.998;4.250;2023-03-20T02:32:05;101747.50;;;7.92;79.07
13593;BME280;6867;50.998;4.250;2023-03-20T02:35:05;101742.47;;;7.89;79.06
13593;BME280;6867;50.998;4.250;2023-03-20T02:37:50;101742.84;;;7.86;78.96
13593;BME280;6867;50.998;4.250;2023-03-20T02:40:29;101740.66;;;7.82;78.95
13593;BME280;6867;50.998;4.250;2023-03-20T02:43:02;101736.47;;;7.87;79.30
13593;BME280;6867;50.998;4.250;2023-03-20T02:45:35;101739.31;;;7.86;79.25
13593;BME280;6867;50.998;4.250;2023-03-20T02:48:11;101742.34;;;7.91;78.79
13593;BME280;6867;50.998;4.250;2023-03-20T02:50:46;101746.50;;;7.85;79.04
13593;BME280;6867;50.998;4.250;2023-03-20T02:53:23;101743.31;;;7.90;79.04
13593;BME280;6867;50.998;4.250;2023-03-20T02:55:56;101734.81;;;7.94;79.19
13593;BME280;6867;50.998;4.250;2023-03-20T02:58:32;101715.09;;;7.95;79.44
13593;BME280;6867;50.998;4.250;2023-03-20T03:01:05;101709.22;;;7.92;79.32
13593;BME280;6867;50.998;4.250;2023-03-20T03:03:38;101701.38;;;7.90;78.55
13593;BME280;6867;50.998;4.250;2023-03-20T03:06:10;101700.03;;;7.86;78.73
13593;BME280;6867;50.998;4.250;2023-03-20T03:08:47;101706.22;;;7.87;78.78
13593;BME280;6867;50.998;4.250;2023-03-20T03:11:15;101718.06;;;7.84;78.92
13593;BME280;6867;50.998;4.250;2023-03-20T03:13:46;101719.09;;;7.91;78.64
13593;BME280;6867;50.998;4.250;2023-03-20T03:16:17;101710.75;;;7.86;79.13
13593;BME280;6867;50.998;4.250;2023-03-20T03:18:45;101716.56;;;7.98;79.16
13593;BME280;6867;50.998;4.250;2023-03-20T03:21:16;101724.09;;;8.11;79.03
13593;BME280;6867;50.998;4.250;2023-03-20T03:23:47;101724.44;;;8.08;79.15
13593;BME280;6867;50.998;4.250;2023-03-20T03:26:19;101718.06;;;8.17;79.34
13593;BME280;6867;50.998;4.250;2023-03-20T03:28:49;101725.44;;;8.15;78.56
13593;BME280;6867;50.998;4.250;2023-03-20T03:31:18;101734.97;;;8.26;79.19
13593;BME280;6867;50.998;4.250;2023-03-20T03:33:49;101724.44;;;8.32;78.46
13593;BME280;6867;50.998;4.250;2023-03-20T03:36:22;101719.91;;;8.24;78.70
13593;BME280;6867;50.998;4.250;2023-03-20T03:38:57;101719.72;;;8.26;79.04
13593;BME280;6867;50.998;4.250;2023-03-20T03:41:30;101704.69;;;8.25;78.98
13593;BME280;6867;50.998;4.250;2023-03-20T03:44:06;101713.56;;;8.26;79.11
13593;BME280;6867;50.998;4.250;2023-03-20T03:46:40;101702.53;;;8.20;79.12
13593;BME280;6867;50.998;4.250;2023-03-20T03:49:09;101710.88;;;8.17;79.16
13593;BME280;6867;50.998;4.250;2023-03-20T03:51:41;101711.06;;;8.16;78.73
13593;BME280;6867;50.998;4.250;2023-03-20T03:54:13;101723.59;;;8.23;78.95
13593;BME280;6867;50.998;4.250;2023-03-20T03:56:43;101709.72;;;8.20;78.94
13593;BME280;6867;50.998;4.250;2023-03-20T03:59:22;101722.75;;;8.23;79.36
13593;BME280;6867;50.998;4.250;2023-03-20T04:01:51;101716.22;;;8.17;78.92
13593;BME280;6867;50.998;4.250;2023-03-20T04:04:19;101720.75;;;8.25;79.13
13593;BME280;6867;50.998;4.250;2023-03-20T04:06:47;101719.75;;;8.18;79.48
13593;BME280;6867;50.998;4.250;2023-03-20T04:09:15;101722.91;;;8.21;79.66
13593;BME280;6867;50.998;4.250;2023-03-20T04:11:42;101726.09;;;8.25;79.44
13593;BME280;6867;50.998;4.250;2023-03-20T04:14:10;101713.38;;;8.27;78.79
13593;BME280;6867;50.998;4.250;2023-03-20T04:16:37;101715.72;;;8.22;79.58
13593;BME280;6867;50.998;4.250;2023-03-20T04:19:04;101726.28;;;8.15;79.16
13593;BME280;6867;50.998;4.250;2023-03-20T04:21:30;101726.44;;;8.14;79.66
13593;BME280;6867;50.998;4.250;2023-03-20T04:23:57;101726.94;;;8.17;79.68
13593;BME280;6867;50.998;4.250;2023-03-20T04:26:25;101718.06;;;8.17;79.33
13593;BME280;6867;50.998;4.250;2023-03-20T04:28:52;101716.06;;;8.19;79.69
13593;BME280;6867;50.998;4.250;2023-03-20T04:31:19;101707.38;;;8.17;79.98
13593;BME280;6867;50.998;4.250;2023-03-20T04:33:46;101714.25;;;8.19;79.63
13593;BME280;6867;50.998;4.250;2023-03-20T04:36:13;101711.91;;;8.16;79.65
13593;BME280;6867;50.998;4.250;2023-03-20T04:38:39;101706.66;;;8.31;79.12
13593;BME280;6867;50.998;4.250;2023-03-20T04:41:06;101704.00;;;8.39;78.75
13593;BME280;6867;50.998;4.250;2023-03-20T04:43:34;101701.50;;;8.30;79.09
13593;BME280;6867;50.998;4.250;2023-03-20T04:46:01;101695.66;;;8.26;78.92
13593;BME280;6867;50.998;4.250;2023-03-20T04:48:28;101697.47;;;8.34;79.45
13593;BME280;6867;50.998;4.250;2023-03-20T04:50:56;101688.13;;;8.38;79.29
13593;BME280;6867;50.998;4.250;2023-03-20T04:53:23;101686.44;;;8.29;79.26
13593;BME280;6867;50.998;4.250;2023-03-20T04:55:49;101688.13;;;8.38;79.19
13593;BME280;6867;50.998;4.250;2023-03-20T04:58:16;101691.81;;;8.45;78.74
13593;BME280;6867;50.998;4.250;2023-03-20T05:00:45;101685.78;;;8.43;78.91
13593;BME280;6867;50.998;4.250;2023-03-20T05:03:12;101690.97;;;8.36;78.61
13593;BME280;6867;50.998;4.250;2023-03-20T05:05:38;101682.94;;;8.36;78.79
13593;BME280;6867;50.998;4.250;2023-03-20T05:08:05;101679.09;;;8.39;78.22
13593;BME280;6867;50.998;4.250;2023-03-20T05:10:32;101673.19;;;8.35;78.46
13593;BME280;6867;50.998;4.250;2023-03-20T05:12:59;101673.56;;;8.48;78.47
13593;BME280;6867;50.998;4.250;2023-03-20T05:15:25;101658.66;;;8.46;79.03
13593;BME280;6867;50.998;4.250;2023-03-20T05:17:53;101655.19;;;8.37;79.01
13593;BME280;6867;50.998;4.250;2023-03-20T05:20:21;101668.19;;;8.48;78.92
13593;BME280;6867;50.998;4.250;2023-03-20T05:22:48;101665.03;;;8.45;78.21
13593;BME280;6867;50.998;4.250;2023-03-20T05:25:16;101661.53;;;8.44;78.20
13593;BME280;6867;50.998;4.250;2023-03-20T05:27:43;101660.53;;;8.37;78.68
13593;BME280;6867;50.998;4.250;2023-03-20T05:30:11;101657.50;;;8.40;78.18
13593;BME280;6867;50.998;4.250;2023-03-20T05:32:37;101666.69;;;8.46;78.38
13593;BME280;6867;50.998;4.250;2023-03-20T05:35:07;101681.19;;;8.60;78.22
13593;BME280;6867;50.998;4.250;2023-03-20T05:37:34;101679.38;;;8.52;78.26
13593;BME280;6867;50.998;4.250;2023-03-20T05:40:01;101677.72;;;8.51;78.23
13593;BME280;6867;50.998;4.250;2023-03-20T05:42:28;101680.88;;;8.55;78.75
13593;BME280;6867;50.998;4.250;2023-03-20T05:44:55;101694.63;;;8.52;78.00
13593;BME280;6867;50.998;4.250;2023-03-20T05:47:22;101691.94;;;8.52;78.30
13593;BME280;6867;50.998;4.250;2023-03-20T05:49:49;101683.25;;;8.50;77.98
13593;BME280;6867;50.998;4.250;2023-03-20T05:52:17;101693.75;;;8.59;78.19
13593;BME280;6867;50.998;4.250;2023-03-20T05:54:43;101687.41;;;8.52;77.57
13593;BME280;6867;50.998;4.250;2023-03-20T05:57:10;101696.28;;;8.53;77.90
13593;BME280;6867;50.998;4.250;2023-03-20T05:59:36;101688.91;;;8.55;77.33
13593;BME280;6867;50.998;4.250;2023-03-20T06:02:03;101697.31;;;8.43;77.52
13593;BME280;6867;50.998;4.250;2023-03-20T06:04:32;101701.00;;;8.42;77.92
13593;BME280;6867;50.998;4.250;2023-03-20T06:06:59;101702.31;;;8.55;77.91
13593;BME280;6867;50.998;4.250;2023-03-20T06:09:27;101704.47;;;8.59;77.55
13593;BME280;6867;50.998;4.250;2023-03-20T06:11:54;101704.69;;;8.41;77.98
13593;BME280;6867;50.998;4.250;2023-03-20T06:14:21;101710.69;;;8.52;78.00
13593;BME280;6867;50.998;4.250;2023-03-20T06:16:47;101706.28;;;8.75;78.41
13593;BME280;6867;50.998;4.250;2023-03-20T06:19:14;101708.22;;;8.89;77.52
13593;BME280;6867;50.998;4.250;2023-03-20T06:21:41;101696.19;;;8.85;77.42
13593;BME280;6867;50.998;4.250;2023-03-20T06:24:07;101698.34;;;8.82;77.17
13593;BME280;6867;50.998;4.250;2023-03-20T06:26:35;101687.16;;;8.86;76.71
13593;BME280;6867;50.998;4.250;2023-03-20T06:29:02;101671.91;;;8.87;77.21
13593;BME280;6867;50.998;4.250;2023-03-20T06:31:29;101683.31;;;8.81;76.82
13593;BME280;6867;50.998;4.250;2023-03-20T06:33:55;101680.69;;;8.64;77.03
13593;BME280;6867;50.998;4.250;2023-03-20T06:36:23;101687.00;;;8.80;76.68
13593;BME280;6867;50.998;4.250;2023-03-20T06:38:50;101676.06;;;8.89;76.05
13593;BME280;6867;50.998;4.250;2023-03-20T06:41:16;101678.41;;;8.92;76.71
13593;BME280;6867;50.998;4.250;2023-03-20T06:43:44;101671.34;;;9.00;76.40
13593;BME280;6867;50.998;4.250;2023-03-20T06:46:11;101683.97;;;9.14;75.96
13593;BME280;6867;50.998;4.250;2023-03-20T06:48:38;101679.94;;;9.18;75.48
13593;BME280;6867;50.998;4.250;2023-03-20T06:51:05;101680.09;;;9.25;75.29
13593;BME280;6867;50.998;4.250;2023-03-20T06:53:32;101680.03;;;9.33;75.39
13593;BME280;6867;50.998;4.250;2023-03-20T06:55:59;101683.50;;;9.41;74.89
13593;BME280;6867;50.998;4.250;2023-03-20T06:58:25;101681.16;;;9.38;75.05
13593;BME280;6867;50.998;4.250;2023-03-20T07:00:53;101681.47;;;9.43;74.99
13593;BME280;6867;50.998;4.250;2023-03-20T07:03:21;101684.56;;;9.55;74.73
13593;BME280;6867;50.998;4.250;2023-03-20T07:05:48;101679.63;;;9.67;74.20
13593;BME280;6867;50.998;4.250;2023-03-20T07:08:15;101668.06;;;9.66;73.56
13593;BME280;6867;50.998;4.250;2023-03-20T07:10:42;101661.53;;;9.61;72.92
13593;BME280;6867;50.998;4.250;2023-03-20T07:13:08;101677.16;;;9.80;73.00
13593;BME280;6867;50.998;4.250;2023-03-20T07:15:36;101670.16;;;9.94;72.93
13593;BME280;6867;50.998;4.250;2023-03-20T07:18:04;101652.41;;;9.93;72.86
13593;BME280;6867;50.998;4.250;2023-03-20T07:20:31;101652.13;;;10.03;72.28
13593;BME280;6867;50.998;4.250;2023-03-20T07:22:58;101656.00;;;10.38;71.63
13593;BME280;6867;50.998;4.250;2023-03-20T07:25:25;101642.41;;;10.25;71.02
13593;BME280;6867;50.998;4.250;2023-03-20T07:27:52;101653.41;;;10.59;71.54
13593;BME280;6867;50.998;4.250;2023-03-20T07:30:18;101648.22;;;10.72;70.95
13593;BME280;6867;50.998;4.250;2023-03-20T07:32:45;101635.97;;;10.70;69.95
13593;BME280;6867;50.998;4.250;2023-03-20T07:35:15;101618.59;;;10.66;69.72
13593;BME280;6867;50.998;4.250;2023-03-20T07:37:42;101628.84;;;10.77;69.72
13593;BME280;6867;50.998;4.250;2023-03-20T07:40:09;101619.16;;;10.97;69.39
13593;BME280;6867;50.998;4.250;2023-03-20T07:42:36;101615.72;;;11.04;69.02
13593;BME280;6867;50.998;4.250;2023-03-20T07:45:04;101604.41;;;11.08;68.29
13593;BME280;6867;50.998;4.250;2023-03-20T07:47:31;101583.59;;;11.17;67.50
13593;BME280;6867;50.998;4.250;2023-03-20T07:49:58;101597.72;;;10.83;68.03
13593;BME280;6867;50.998;4.250;2023-03-20T07:52:26;101610.25;;;10.97;68.27
13593;BME280;6867;50.998;4.250;2023-03-20T07:54:53;101612.97;;;11.18;67.96
13593;BME280;6867;50.998;4.250;2023-03-20T07:57:20;101592.72;;;11.01;67.47
13593;BME280;6867;50.998;4.250;2023-03-20T07:59:47;101597.53;;;11.06;67.08
13593;BME280;6867;50.998;4.250;2023-03-20T08:02:14;101583.47;;;11.04;67.34
13593;BME280;6867;50.998;4.250;2023-03-20T08:04:41;101601.97;;;11.13;67.08
13593;BME280;6867;50.998;4.250;2023-03-20T08:07:07;101593.81;;;11.07;66.84
13593;BME280;6867;50.998;4.250;2023-03-20T08:09:36;101597.91;;;11.03;66.49
13593;BME280;6867;50.998;4.250;2023-03-20T08:12:02;101589.69;;;10.89;66.69
13593;BME280;6867;50.998;4.250;2023-03-20T08:14:29;101605.81;;;10.89;66.43
13593;BME280;6867;50.998;4.250;2023-03-20T08:16:56;101612.50;;;11.15;66.47
13593;BME280;6867;50.998;4.250;2023-03-20T08:19:23;101609.59;;;10.95;66.81
13593;BME280;6867;50.998;4.250;2023-03-20T08:21:50;101604.28;;;11.16;66.23
13593;BME280;6867;50.998;4.250;2023-03-20T08:24:17;101625.25;;;11.06;66.34
13593;BME280;6867;50.998;4.250;2023-03-20T08:26:45;101614.16;;;10.94;66.71
13593;BME280;6867;50.998;4.250;2023-03-20T08:29:12;101615.53;;;11.27;66.35
13593;BME280;6867;50.998;4.250;2023-03-20T08:31:41;101612.06;;;11.33;65.96
13593;BME280;6867;50.998;4.250;2023-03-20T08:34:08;101590.09;;;11.51;65.21
13593;BME280;6867;50.998;4.250;2023-03-20T08:36:35;101601.50;;;11.31;65.36
13593;BME280;6867;50.998;4.250;2023-03-20T08:39:01;101597.81;;;11.82;64.50
13593;BME280;6867;50.998;4.250;2023-03-20T08:41:28;101578.50;;;11.78;64.01
13593;BME280;6867;50.998;4.250;2023-03-20T08:43:56;101558.78;;;11.92;63.18
13593;BME280;6867;50.998;4.250;2023-03-20T08:46:23;101564.81;;;11.73;63.21
13593;BME280;6867;50.998;4.250;2023-03-20T08:48:50;101557.81;;;11.79;63.23
13593;BME280;6867;50.998;4.250;2023-03-20T08:51:17;101562.69;;;11.40;63.56
13593;BME280;6867;50.998;4.250;2023-03-20T08:53:44;101581.00;;;11.52;63.60
13593;BME280;6867;50.998;4.250;2023-03-20T08:56:10;101602.31;;;11.53;64.14
13593;BME280;6867;50.998;4.250;2023-03-20T08:58:37;101588.06;;;11.31;64.23
13593;BME280;6867;50.998;4.250;2023-03-20T09:01:06;101607.13;;;11.79;63.79
13593;BME280;6867;50.998;4.250;2023-03-20T09:03:33;101606.72;;;11.82;63.89
13593;BME280;6867;50.998;4.250;2023-03-20T09:06:03;101587.75;;;11.90;63.03
13593;BME280;6867;50.998;4.250;2023-03-20T09:08:30;101588.78;;;12.24;62.72
13593;BME280;6867;50.998;4.250;2023-03-20T09:10:57;101569.53;;;12.68;61.91
13593;BME280;6867;50.998;4.250;2023-03-20T09:13:24;101533.50;;;12.89;60.83
13593;BME280;6867;50.998;4.250;2023-03-20T09:15:50;101515.41;;;12.63;60.50
13593;BME280;6867;50.998;4.250;2023-03-20T09:18:19;101505.19;;;12.52;60.22
13593;BME280;6867;50.998;4.250;2023-03-20T09:20:46;101514.44;;;13.17;59.26
13593;BME280;6867;50.998;4.250;2023-03-20T09:23:13;101501.38;;;13.21;58.82
13593;BME280;6867;50.998;4.250;2023-03-20T09:25:40;101517.38;;;13.36;58.67
13593;BME280;6867;50.998;4.250;2023-03-20T09:28:07;101477.53;;;13.44;57.70
13593;BME280;6867;50.998;4.250;2023-03-20T09:30:34;101493.88;;;13.16;58.29
13593;BME280;6867;50.998;4.250;2023-03-20T09:33:00;101495.38;;;13.45;58.42
13593;BME280;6867;50.998;4.250;2023-03-20T09:35:28;101459.66;;;13.37;57.35
13593;BME280;6867;50.998;4.250;2023-03-20T09:37:55;101514.44;;;13.70;57.75
13593;BME280;6867;50.998;4.250;2023-03-20T09:40:26;101518.97;;;13.97;57.82
13593;BME280;6867;50.998;4.250;2023-03-20T09:43:01;101460.75;;;14.45;55.65
13593;BME280;6867;50.998;4.250;2023-03-20T09:45:41;101425.44;;;14.02;55.71
13593;BME280;6867;50.998;4.250;2023-03-20T09:48:14;101435.97;;;14.17;55.08
13593;BME280;6867;50.998;4.250;2023-03-20T09:50:48;101467.06;;;13.88;55.91
13593;BME280;6867;50.998;4.250;2023-03-20T09:53:26;101467.63;;;14.03;55.82
13593;BME280;6867;50.998;4.250;2023-03-20T09:55:56;101452.28;;;13.90;55.55
13593;BME280;6867;50.998;4.250;2023-03-20T09:58:24;101425.47;;;13.95;55.37
13593;BME280;6867;50.998;4.250;2023-03-20T10:00:55;101452.81;;;14.19;55.39
13593;BME280;6867;50.998;4.250;2023-03-20T10:03:26;101431.19;;;14.19;55.26
13593;BME280;6867;50.998;4.250;2023-03-20T10:05:59;101458.81;;;13.63;56.14
13593;BME280;6867;50.998;4.250;2023-03-20T10:08:32;101469.16;;;13.73;56.26
13593;BME280;6867;50.998;4.250;2023-03-20T10:11:06;101469.50;;;13.96;55.96
13593;BME280;6867;50.998;4.250;2023-03-20T10:13:42;101457.03;;;14.02;55.53
13593;BME280;6867;50.998;4.250;2023-03-20T10:16:18;101468.94;;;14.32;55.84
13593;BME280;6867;50.998;4.250;2023-03-20T10:18:56;101459.06;;;14.13;55.61
13593;BME280;6867;50.998;4.250;2023-03-20T10:21:33;101439.72;;;14.16;54.67
13593;BME280;6867;50.998;4.250;2023-03-20T10:24:04;101475.91;;;14.08;56.03
13593;BME280;6867;50.998;4.250;2023-03-20T10:26:33;101473.53;;;14.32;55.77
13593;BME280;6867;50.998;4.250;2023-03-20T10:29:05;101476.22;;;13.80;56.57
13593;BME280;6867;50.998;4.250;2023-03-20T10:31:40;101447.34;;;13.81;55.56
13593;BME280;6867;50.998;4.250;2023-03-20T10:34:22;101477.28;;;13.73;57.03
13593;BME280;6867;50.998;4.250;2023-03-20T10:37:07;101449.50;;;14.10;55.18
13593;BME280;6867;50.998;4.250;2023-03-20T10:39:49;101503.38;;;14.05;56.77
13593;BME280;6867;50.998;4.250;2023-03-20T10:42:24;101452.00;;;14.12;55.95
13593;BME280;6867;50.998;4.250;2023-03-20T10:44:57;101476.47;;;14.24;55.95
13593;BME280;6867;50.998;4.250;2023-03-20T10:47:29;101461.31;;;14.23;56.09
13593;BME280;6867;50.998;4.250;2023-03-20T10:50:02;101463.38;;;14.27;55.70
13593;BME280;6867;50.998;4.250;2023-03-20T10:52:35;101415.31;;;14.29;55.08
13593;BME280;6867;50.998;4.250;2023-03-20T10:55:06;101417.97;;;14.42;54.94
13593;BME280;6867;50.998;4.250;2023-03-20T10:57:38;101399.81;;;14.56;54.40
13593;BME280;6867;50.998;4.250;2023-03-20T11:00:13;101408.28;;;14.91;54.42
13593;BME280;6867;50.998;4.250;2023-03-20T11:02:44;101375.94;;;14.47;54.25
13593;BME280;6867;50.998;4.250;2023-03-20T11:05:21;101402.41;;;14.69;54.24
13593;BME280;6867;50.998;4.250;2023-03-20T11:07:59;101425.41;;;14.85;54.29
13593;BME280;6867;50.998;4.250;2023-03-20T11:10:27;101444.25;;;14.92;54.46
13593;BME280;6867;50.998;4.250;2023-03-20T11:12:54;101412.38;;;15.01;53.92
13593;BME280;6867;50.998;4.250;2023-03-20T11:15:22;101410.41;;;15.08;53.95
13593;BME280;6867;50.998;4.250;2023-03-20T11:17:55;101390.50;;;15.64;53.04
13593;BME280;6867;50.998;4.250;2023-03-20T11:20:24;101367.94;;;16.18;51.83
13593;BME280;6867;50.998;4.250;2023-03-20T11:22:58;101338.66;;;16.09;51.45
13593;BME280;6867;50.998;4.250;2023-03-20T11:25:33;101353.91;;;15.91;52.05
13593;BME280;6867;50.998;4.250;2023-03-20T11:28:24;101318.88;;;16.08;50.99
13593;BME280;6867;50.998;4.250;2023-03-20T11:30:58;101304.50;;;16.08;50.31
13593;BME280;6867;50.998;4.250;2023-03-20T11:33:27;101332.06;;;16.05;51.04
13593;BME280;6867;50.998;4.250;2023-03-20T11:35:55;101306.47;;;16.54;49.82
13593;BME280;6867;50.998;4.250;2023-03-20T11:38:29;101291.94;;;16.25;49.93
13593;BME280;6867;50.998;4.250;2023-03-20T11:40:56;101351.91;;;16.17;51.42
13593;BME280;6867;50.998;4.250;2023-03-20T11:43:24;101290.38;;;16.83;49.45
13593;BME280;6867;50.998;4.250;2023-03-20T11:45:54;101281.72;;;17.09;48.65
13593;BME280;6867;50.998;4.250;2023-03-20T11:48:23;101288.91;;;17.27;48.92
13593;BME280;6867;50.998;4.250;2023-03-20T11:50:57;101266.88;;;17.00;48.53
13593;BME280;6867;50.998;4.250;2023-03-20T11:53:29;101281.16;;;16.96;48.94
13593;BME280;6867;50.998;4.250;2023-03-20T11:56:06;101275.94;;;17.58;47.83
13593;BME280;6867;50.998;4.250;2023-03-20T11:58:37;101235.13;;;17.53;46.99
13593;BME280;6867;50.998;4.250;2023-03-20T12:01:07;101243.78;;;17.38;47.43
13593;BME280;6867;50.998;4.250;2023-03-20T12:03:43;101283.72;;;16.55;49.28
13593;BME280;6867;50.998;4.250;2023-03-20T12:06:16;101314.31;;;16.21;50.03
13593;BME280;6867;50.998;4.250;2023-03-20T12:08:49;101285.41;;;16.03;49.85
13593;BME280;6867;50.998;4.250;2023-03-20T12:11:23;101329.81;;;16.43;50.20
13593;BME280;6867;50.998;4.250;2023-03-20T12:13:58;101293.25;;;16.34;49.77
13593;BME280;6867;50.998;4.250;2023-03-20T12:16:26;101306.31;;;16.26;50.04
13593;BME280;6867;50.998;4.250;2023-03-20T12:18:56;101340.38;;;15.91;51.19
13593;BME280;6867;50.998;4.250;2023-03-20T12:21:29;101346.09;;;15.83;51.45
13593;BME280;6867;50.998;4.250;2023-03-20T12:24:03;101334.91;;;15.61;51.40
13593;BME280;6867;50.998;4.250;2023-03-20T12:26:34;101344.66;;;15.99;51.28
13593;BME280;6867;50.998;4.250;2023-03-20T12:29:04;101331.41;;;16.21;50.80
13593;BME280;6867;50.998;4.250;2023-03-20T12:31:38;101354.00;;;16.45;51.17
13593;BME280;6867;50.998;4.250;2023-03-20T12:34:10;101366.59;;;17.05;50.54
13593;BME280;6867;50.998;4.250;2023-03-20T12:36:42;101241.88;;;17.10;48.18
13593;BME280;6867;50.998;4.250;2023-03-20T12:39:13;101265.94;;;17.06;48.68
13593;BME280;6867;50.998;4.250;2023-03-20T12:41:53;101295.16;;;17.39;48.87
13593;BME280;6867;50.998;4.250;2023-03-20T12:44:29;101264.88;;;17.07;48.96
13593;BME280;6867;50.998;4.250;2023-03-20T12:47:10;101262.94;;;16.14;49.97
13593;BME280;6867;50.998;4.250;2023-03-20T12:49:44;101291.00;;;16.19;50.17
13593;BME280;6867;50.998;4.250;2023-03-20T12:52:21;101288.03;;;15.61;50.76
13593;BME280;6867;50.998;4.250;2023-03-20T12:55:14;101345.91;;;15.66;52.04
13593;BME280;6867;50.998;4.250;2023-03-20T12:57:53;101357.13;;;16.00;51.64
13593;BME280;6867;50.998;4.250;2023-03-20T13:00:28;101320.41;;;16.04;51.31
13593;BME280;6867;50.998;4.250;2023-03-20T13:03:05;101332.78;;;16.12;51.55
13593;BME280;6867;50.998;4.250;2023-03-20T13:05:44;101386.13;;;16.00;52.33
13593;BME280;6867;50.998;4.250;2023-03-20T13:08:24;101352.22;;;16.09;51.81
13593;BME280;6867;50.998;4.250;2023-03-20T13:11:02;101361.25;;;16.33;51.80
13593;BME280;6867;50.998;4.250;2023-03-20T13:13:37;101326.56;;;16.88;50.52
13593;BME280;6867;50.998;4.250;2023-03-20T13:16:12;101306.75;;;17.00;50.39
13593;BME280;6867;50.998;4.250;2023-03-20T13:18:53;101303.31;;;17.16;50.11
13593;BME280;6867;50.998;4.250;2023-03-20T13:21:31;101293.28;;;17.28;49.65
13593;BME280;6867;50.998;4.250;2023-03-20T13:24:10;101302.41;;;17.10;49.93
13593;BME280;6867;50.998;4.250;2023-03-20T13:26:46;101307.22;;;16.61;50.61